createdAt,value
2019-01-27T00:01:27.554Z,1.40
2019-01-27T00:03:04.547Z,4.00
2019-01-27T00:04:40.780Z,3.00
2019-01-27T00:06:24.634Z,2.20
2019-01-27T00:08:13.504Z,3.20
2019-01-27T00:09:48.582Z,4.00
2019-01-27T00:11:28.078Z,3.20
2019-01-27T00:13:03.371Z,1.00
2019-01-27T00:14:38.958Z,1.00
2019-01-27T00:16:14.272Z,3.00
2019-01-27T00:17:49.644Z,2.20
2019-01-27T00:19:28.127Z,3.00
2019-01-27T00:21:03.482Z,2.20
2019-01-27T00:22:39.442Z,2.20
2019-01-27T00:24:14.958Z,1.40
2019-01-27T00:25:52.842Z,3.00
2019-01-27T00:27:31.482Z,3.00
2019-01-27T00:29:07.211Z,2.80
2019-01-27T00:30:45.095Z,0.00
2019-01-27T00:32:24.616Z,3.60
2019-01-27T00:34:12.371Z,1.00
2019-01-27T00:35:46.555Z,3.80
2019-01-27T00:37:23.367Z,0.80
2019-01-27T00:38:58.810Z,2.60
2019-01-27T00:40:37.232Z,4.00
2019-01-27T00:42:13.393Z,1.00
2019-01-27T00:43:50.810Z,1.80
2019-01-27T00:45:28.363Z,3.00
2019-01-27T00:47:05.362Z,0.80
2019-01-27T00:48:51.056Z,0.80
2019-01-27T00:50:28.419Z,3.00
2019-01-27T00:52:04.277Z,1.00
2019-01-27T00:53:42.397Z,0.00
2019-01-27T00:55:19.264Z,3.00
2019-01-27T00:56:57.682Z,1.40
2019-01-27T00:58:34.734Z,1.80
2019-01-27T01:00:16.274Z,0.60
2019-01-27T01:01:54.079Z,1.00
2019-01-27T01:03:29.889Z,1.00
2019-01-27T01:05:06.073Z,3.00
2019-01-27T01:06:41.664Z,1.40
2019-01-27T01:08:25.712Z,0.00
2019-01-27T01:10:01.021Z,3.20
2019-01-27T01:11:36.456Z,3.00
2019-01-27T01:13:11.782Z,1.00
2019-01-27T01:14:49.833Z,1.00
2019-01-27T01:16:25.578Z,0.00
2019-01-27T01:18:01.094Z,1.00
2019-01-27T01:19:38.092Z,1.40
2019-01-27T01:21:13.372Z,2.20
2019-01-27T01:22:54.938Z,1.80
2019-01-27T01:24:30.817Z,0.80
2019-01-27T01:26:06.469Z,1.00
2019-01-27T01:27:41.842Z,1.80
2019-01-27T01:29:17.241Z,0.40
2019-01-27T01:30:53.231Z,3.60
2019-01-27T01:32:28.772Z,0.40
2019-01-27T01:34:04.383Z,3.00
2019-01-27T01:35:40.229Z,1.00
2019-01-27T01:37:16.132Z,1.00
2019-01-27T01:38:55.052Z,1.00
2019-01-27T01:40:30.810Z,1.40
2019-01-27T01:42:08.708Z,0.00
2019-01-27T01:43:44.375Z,3.00
2019-01-27T01:45:23.798Z,1.80
2019-01-27T01:46:59.612Z,0.80
2019-01-27T01:48:38.894Z,0.40
2019-01-27T01:50:15.465Z,1.00
2019-01-27T01:51:51.654Z,3.00
2019-01-27T01:53:27.880Z,1.40
2019-01-27T01:55:03.901Z,1.00
2019-01-27T01:56:42.573Z,1.00
2019-01-27T01:58:18.431Z,1.80
2019-01-27T01:59:55.524Z,1.00
2019-01-27T02:01:31.919Z,0.20
2019-01-27T02:03:07.187Z,0.00
2019-01-27T02:04:53.208Z,1.00
2019-01-27T02:06:28.661Z,1.00
2019-01-27T02:08:05.292Z,0.00
2019-01-27T02:09:47.987Z,0.40
2019-01-27T02:11:23.357Z,0.60
2019-01-27T02:13:00.418Z,1.00
2019-01-27T02:14:36.028Z,1.00
2019-01-27T02:16:12.586Z,0.00
2019-01-27T02:17:48.368Z,0.00
2019-01-27T02:19:23.734Z,0.60
2019-01-27T02:20:58.983Z,0.80
2019-01-27T02:22:34.713Z,1.00
2019-01-27T02:24:12.460Z,0.40
2019-01-27T02:25:54.712Z,0.00
2019-01-27T02:27:30.189Z,0.00
2019-01-27T02:29:08.372Z,0.40
2019-01-27T02:30:46.887Z,0.00
2019-01-27T02:32:22.301Z,1.00
2019-01-27T02:33:58.102Z,0.00
2019-01-27T02:35:33.519Z,0.20
2019-01-27T02:37:08.917Z,1.00
2019-01-27T02:38:44.657Z,1.00
2019-01-27T02:40:20.589Z,0.80
2019-01-27T02:41:59.245Z,0.00
2019-01-27T02:43:39.922Z,1.00
2019-01-27T02:45:30.228Z,1.00
2019-01-27T02:47:25.866Z,0.20
2019-01-27T02:49:05.861Z,0.00
2019-01-27T02:50:47.464Z,0.00
2019-01-27T02:52:27.279Z,1.00
2019-01-27T02:54:04.874Z,0.00
2019-01-27T02:55:44.236Z,0.00
2019-01-27T02:57:19.678Z,0.00
2019-01-27T02:58:56.649Z,0.00
2019-01-27T03:00:31.959Z,0.00
2019-01-27T03:02:07.415Z,0.80
2019-01-27T03:03:44.750Z,0.00
2019-01-27T03:05:50.334Z,0.20
2019-01-27T03:07:35.570Z,0.00
2019-01-27T03:09:16.191Z,1.00
2019-01-27T03:10:51.654Z,0.00
2019-01-27T03:12:27.531Z,0.00
2019-01-27T03:14:03.211Z,0.40
2019-01-27T03:15:38.748Z,0.40
2019-01-27T03:17:19.657Z,1.00
2019-01-27T03:18:56.956Z,0.00
2019-01-27T03:20:32.410Z,0.00
2019-01-27T03:22:08.503Z,0.80
2019-01-27T03:23:43.954Z,0.40
2019-01-27T03:25:19.623Z,0.80
2019-01-27T03:26:55.093Z,1.00
2019-01-27T03:28:30.616Z,0.00
2019-01-27T03:30:15.749Z,1.00
2019-01-27T03:31:56.140Z,1.00
2019-01-27T03:33:37.279Z,0.00
2019-01-27T03:35:15.083Z,1.00
2019-01-27T03:36:52.560Z,1.00
2019-01-27T03:38:28.173Z,1.00
2019-01-27T03:40:07.102Z,0.80
2019-01-27T03:41:43.099Z,0.00
2019-01-27T03:43:18.916Z,1.00
2019-01-27T03:44:54.474Z,0.40
2019-01-27T03:46:30.010Z,0.00
2019-01-27T03:48:06.220Z,1.00
2019-01-27T03:49:41.929Z,1.00
2019-01-27T03:51:24.420Z,0.00
2019-01-27T03:52:59.984Z,0.60
2019-01-27T03:54:35.416Z,0.80
2019-01-27T03:56:14.073Z,0.00
2019-01-27T03:57:50.974Z,0.20
2019-01-27T03:59:26.324Z,0.40
2019-01-27T04:01:01.555Z,1.00
2019-01-27T04:02:36.887Z,0.60
2019-01-27T04:04:12.567Z,0.00
2019-01-27T04:05:48.899Z,0.00
2019-01-27T04:07:24.234Z,1.00
2019-01-27T04:08:59.659Z,1.00
2019-01-27T04:10:35.628Z,1.00
2019-01-27T04:12:11.350Z,0.00
2019-01-27T04:13:49.072Z,1.00
2019-01-27T04:15:24.128Z,0.20
2019-01-27T04:17:01.107Z,1.00
2019-01-27T04:18:36.535Z,0.00
2019-01-27T04:20:17.773Z,0.80
2019-01-27T04:21:53.057Z,0.60
2019-01-27T04:23:28.264Z,0.40
2019-01-27T04:25:03.741Z,1.00
2019-01-27T04:26:40.522Z,0.00
2019-01-27T04:28:20.822Z,1.00
2019-01-27T04:29:56.334Z,1.00
2019-01-27T04:31:39.782Z,0.00
2019-01-27T04:33:15.523Z,0.00
2019-01-27T04:34:50.985Z,1.00
2019-01-27T04:36:30.590Z,0.00
2019-01-27T04:38:05.927Z,1.00
2019-01-27T04:39:41.178Z,0.00
2019-01-27T04:41:18.051Z,0.40
2019-01-27T04:42:53.328Z,1.00
2019-01-27T04:44:37.510Z,0.80
2019-01-27T04:46:12.869Z,0.00
2019-01-27T04:47:48.586Z,1.00
2019-01-27T04:49:24.393Z,0.60
2019-01-27T04:50:59.818Z,0.00
2019-01-27T04:52:35.175Z,0.00
2019-01-27T04:54:10.625Z,0.80
2019-01-27T04:55:45.893Z,0.00
2019-01-27T04:57:21.552Z,1.00
2019-01-27T04:59:02.824Z,0.00
2019-01-27T05:00:38.148Z,1.00
2019-01-27T05:02:13.882Z,1.00
2019-01-27T05:03:57.305Z,0.20
2019-01-27T05:05:32.668Z,1.00
2019-01-27T05:07:08.089Z,0.20
2019-01-27T05:08:45.345Z,0.80
2019-01-27T05:10:20.587Z,0.00
2019-01-27T05:11:56.607Z,0.00
2019-01-27T05:13:32.441Z,0.00
2019-01-27T05:15:10.598Z,0.40
2019-01-27T05:16:47.811Z,0.00
2019-01-27T05:18:23.436Z,0.00
2019-01-27T05:19:59.256Z,0.40
2019-01-27T05:21:34.596Z,0.00
2019-01-27T05:23:11.128Z,0.00
2019-01-27T05:24:48.171Z,0.00
2019-01-27T05:26:24.055Z,0.60
2019-01-27T05:27:59.695Z,0.00
2019-01-27T05:29:34.964Z,0.40
2019-01-27T05:31:10.317Z,0.00
2019-01-27T05:32:46.122Z,0.00
2019-01-27T05:34:21.454Z,0.60
2019-01-27T05:35:57.688Z,0.00
2019-01-27T05:37:34.433Z,0.00
2019-01-27T05:39:11.071Z,0.00
2019-01-27T05:40:47.646Z,0.60
2019-01-27T05:42:25.566Z,0.00
2019-01-27T05:44:03.831Z,0.00
2019-01-27T05:45:39.513Z,0.60
2019-01-27T05:47:14.841Z,0.00
2019-01-27T05:48:50.255Z,0.00
2019-01-27T05:50:26.893Z,-0.20
2019-01-27T05:52:05.789Z,0.20
2019-01-27T05:53:41.377Z,0.00
2019-01-27T05:55:17.158Z,0.00
2019-01-27T05:56:56.670Z,0.00
2019-01-27T05:58:29.507Z,0.00
2019-01-27T06:00:07.237Z,0.00
2019-01-27T06:01:43.148Z,0.00
2019-01-27T06:03:21.302Z,0.00
2019-01-27T06:04:56.591Z,0.00
2019-01-27T06:06:32.571Z,0.00
2019-01-27T06:08:09.033Z,0.00
2019-01-27T06:09:44.260Z,0.00
2019-01-27T06:11:29.690Z,0.00
2019-01-27T06:13:05.010Z,0.00
2019-01-27T06:14:40.496Z,0.00
2019-01-27T06:16:19.282Z,0.00
2019-01-27T06:17:54.600Z,0.00
2019-01-27T06:20:02.225Z,0.00
2019-01-27T06:21:37.665Z,0.00
2019-01-27T06:23:13.523Z,0.00
2019-01-27T06:24:49.420Z,0.00
2019-01-27T06:26:24.789Z,0.00
2019-01-27T06:28:00.420Z,0.00
2019-01-27T06:29:35.783Z,0.60
2019-01-27T06:31:12.018Z,0.00
2019-01-27T06:33:04.622Z,0.00
2019-01-27T06:34:39.978Z,0.00
2019-01-27T06:36:16.138Z,0.00
2019-01-27T06:37:51.980Z,1.00
2019-01-27T06:39:27.772Z,0.00
2019-01-27T06:41:05.769Z,0.40
2019-01-27T06:42:41.434Z,0.00
2019-01-27T06:44:17.168Z,0.00
2019-01-27T06:45:52.566Z,1.00
2019-01-27T06:47:27.837Z,0.00
2019-01-27T06:49:03.182Z,0.00
2019-01-27T06:50:38.412Z,0.00
2019-01-27T06:52:14.068Z,0.00
2019-01-27T06:53:49.480Z,0.20
2019-01-27T06:55:25.101Z,0.60
2019-01-27T06:57:03.458Z,0.00
2019-01-27T06:58:56.410Z,0.00
2019-01-27T07:00:53.511Z,0.40
2019-01-27T07:02:41.568Z,0.00
2019-01-27T07:04:41.795Z,0.00
2019-01-27T07:06:35.911Z,1.00
2019-01-27T07:08:30.386Z,0.00
2019-01-27T07:10:27.293Z,0.00
2019-01-27T07:12:33.348Z,0.00
2019-01-27T07:14:36.393Z,0.00
2019-01-27T07:16:23.315Z,0.00
2019-01-27T07:18:18.454Z,0.00
2019-01-27T07:20:11.533Z,0.00
2019-01-27T07:22:04.513Z,0.00
2019-01-27T07:24:01.654Z,0.00
2019-01-27T07:26:05.655Z,0.00
2019-01-27T07:28:02.805Z,0.00
2019-01-27T07:30:05.655Z,0.00
2019-01-27T07:31:48.853Z,0.00
2019-01-27T07:33:44.111Z,0.00
2019-01-27T07:35:38.264Z,0.80
2019-01-27T07:37:50.930Z,0.00
2019-01-27T07:39:38.677Z,0.00
2019-01-27T07:41:31.436Z,0.00
2019-01-27T07:43:25.531Z,1.00
2019-01-27T07:45:05.812Z,0.00
2019-01-27T07:46:53.449Z,0.00
2019-01-27T07:48:47.473Z,0.00
2019-01-27T07:50:52.116Z,0.00
2019-01-27T07:52:50.120Z,0.00
2019-01-27T07:54:44.268Z,0.20
2019-01-27T07:56:40.002Z,0.00
2019-01-27T07:58:27.765Z,0.00
2019-01-27T08:00:19.188Z,0.00
2019-01-27T08:02:05.465Z,0.00
2019-01-27T08:04:05.589Z,0.00
2019-01-27T08:06:02.579Z,0.00
2019-01-27T08:07:47.639Z,0.00
2019-01-27T08:09:38.318Z,0.00
2019-01-27T08:11:24.146Z,0.00
2019-01-27T08:13:10.210Z,0.00
2019-01-27T08:15:11.622Z,0.00
2019-01-27T08:16:58.785Z,0.00
2019-01-27T08:19:05.214Z,0.00
2019-01-27T08:21:17.407Z,0.00
2019-01-27T08:23:14.478Z,0.00
2019-01-27T08:25:11.591Z,0.00
2019-01-27T08:27:20.453Z,0.00
2019-01-27T08:29:26.468Z,0.00
2019-01-27T08:31:08.545Z,0.00
2019-01-27T08:33:01.017Z,0.00
2019-01-27T08:34:58.235Z,0.00
2019-01-27T08:36:47.645Z,0.00
2019-01-27T08:38:48.277Z,0.00
2019-01-27T08:41:04.236Z,0.00
2019-01-27T08:42:58.092Z,0.00
2019-01-27T08:45:16.779Z,0.00
2019-01-27T08:46:55.719Z,0.00
2019-01-27T08:48:31.177Z,0.00
2019-01-27T08:50:18.852Z,0.00
2019-01-27T08:51:54.206Z,0.00
2019-01-27T08:53:35.779Z,0.00
2019-01-27T08:55:13.016Z,0.00
2019-01-27T08:56:48.523Z,0.00
2019-01-27T08:58:24.075Z,0.00
2019-01-27T09:00:03.606Z,0.00
2019-01-27T09:01:56.553Z,0.00
2019-01-27T09:03:47.959Z,0.00
2019-01-27T09:05:54.064Z,0.00
2019-01-27T09:07:57.048Z,0.00
2019-01-27T09:09:54.066Z,0.00
2019-01-27T09:11:49.986Z,0.00
2019-01-27T09:13:42.394Z,0.00
2019-01-27T09:15:51.642Z,0.00
2019-01-27T09:17:39.783Z,0.60
2019-01-27T09:19:41.468Z,0.00
2019-01-27T09:21:36.148Z,1.00
2019-01-27T09:23:33.843Z,0.00
2019-01-27T09:25:32.140Z,0.00
2019-01-27T09:27:18.323Z,0.00
2019-01-27T09:29:12.854Z,0.00
2019-01-27T09:31:06.067Z,0.00
2019-01-27T09:33:10.082Z,0.00
2019-01-27T09:35:04.795Z,0.00
2019-01-27T09:37:00.363Z,0.00
2019-01-27T09:38:51.423Z,0.00
2019-01-27T09:40:59.686Z,0.00
2019-01-27T09:43:10.412Z,0.00
2019-01-27T09:44:53.130Z,0.00
2019-01-27T09:46:50.421Z,0.00
2019-01-27T09:48:43.903Z,0.00
2019-01-27T09:50:28.178Z,0.00
2019-01-27T09:52:16.416Z,0.00
2019-01-27T09:54:13.952Z,0.80
2019-01-27T09:56:23.252Z,0.00
2019-01-27T09:58:24.324Z,0.00
2019-01-27T10:00:07.524Z,0.00
2019-01-27T10:02:07.806Z,0.00
2019-01-27T10:04:08.274Z,0.00
2019-01-27T10:05:54.456Z,0.00
2019-01-27T10:08:20.660Z,1.40
2019-01-27T10:10:09.087Z,0.00
2019-01-27T10:11:51.069Z,1.00
2019-01-27T10:13:38.467Z,0.00
2019-01-27T10:15:38.617Z,0.00
2019-01-27T10:17:34.539Z,0.80
2019-01-27T10:19:48.296Z,0.00
2019-01-27T10:21:42.810Z,0.00
2019-01-27T10:23:32.929Z,1.00
2019-01-27T10:25:30.453Z,1.00
2019-01-27T10:27:30.484Z,0.00
2019-01-27T10:29:23.991Z,0.00
2019-01-27T10:31:20.102Z,0.00
2019-01-27T10:33:16.155Z,0.00
2019-01-27T10:35:03.437Z,1.80
2019-01-27T10:37:03.614Z,0.60
2019-01-27T10:39:06.086Z,0.60
2019-01-27T10:41:01.614Z,0.00
2019-01-27T10:42:51.003Z,0.60
2019-01-27T10:44:58.267Z,1.00
2019-01-27T10:47:07.424Z,0.00
2019-01-27T10:49:06.149Z,0.00
2019-01-27T10:50:53.653Z,0.40
2019-01-27T10:52:39.801Z,0.00
2019-01-27T10:54:32.924Z,0.00
2019-01-27T10:56:27.763Z,0.00
2019-01-27T10:58:56.510Z,0.00
2019-01-27T11:00:49.593Z,0.00
2019-01-27T11:02:46.493Z,0.00
2019-01-27T11:04:40.889Z,0.40
2019-01-27T11:06:35.433Z,1.00
2019-01-27T11:08:45.599Z,1.00
2019-01-27T11:11:01.596Z,0.60
2019-01-27T11:12:50.408Z,5.00
2019-01-27T11:17:03.797Z,0.80
2019-01-27T11:19:07.476Z,1.00
2019-01-27T11:21:05.708Z,1.00
2019-01-27T11:23:00.769Z,0.00
2019-01-27T11:25:05.779Z,1.00
2019-01-27T11:27:04.203Z,0.00
2019-01-27T11:29:11.170Z,0.00
2019-01-27T11:31:03.526Z,0.00
2019-01-27T11:33:08.051Z,0.00
2019-01-27T11:35:16.740Z,1.00
2019-01-27T11:37:01.934Z,0.00
2019-01-27T11:39:01.892Z,1.00
2019-01-27T11:41:14.603Z,0.00
2019-01-27T11:43:18.849Z,0.00
2019-01-27T11:45:13.922Z,0.60
2019-01-27T11:47:11.750Z,1.00
2019-01-27T11:48:53.072Z,1.00
2019-01-27T11:50:37.425Z,1.00
2019-01-27T11:52:20.025Z,1.00
2019-01-27T11:54:02.236Z,0.20
2019-01-27T11:55:47.300Z,0.00
2019-01-27T11:57:22.941Z,1.00
2019-01-27T11:59:04.206Z,0.00
2019-01-27T12:00:42.446Z,0.40
2019-01-27T12:02:21.048Z,0.00
2019-01-27T12:03:59.850Z,0.60
2019-01-27T12:05:42.437Z,0.00
2019-01-27T12:07:22.759Z,1.00
2019-01-27T12:08:58.616Z,0.80
2019-01-27T12:10:35.375Z,0.40
2019-01-27T12:12:13.227Z,1.40
2019-01-27T12:13:51.854Z,3.00
2019-01-27T12:15:31.914Z,1.40
2019-01-27T12:17:14.586Z,2.20
2019-01-27T12:18:55.123Z,3.00
2019-01-27T12:20:36.105Z,1.00
2019-01-27T12:22:18.582Z,1.00
2019-01-27T12:24:12.040Z,1.00
2019-01-27T12:25:53.653Z,1.00
2019-01-27T12:27:56.463Z,3.00
2019-01-27T12:29:40.647Z,3.80
2019-01-27T12:31:21.516Z,1.00
2019-01-27T12:33:08.895Z,1.00
2019-01-27T12:35:04.850Z,0.00
2019-01-27T12:36:49.609Z,0.00
2019-01-27T12:38:46.543Z,0.40
2019-01-27T12:40:32.320Z,0.40
2019-01-27T12:42:12.760Z,1.00
2019-01-27T12:43:56.589Z,1.00
2019-01-27T12:45:31.221Z,0.00
2019-01-27T12:47:09.802Z,0.80
2019-01-27T12:48:45.331Z,0.00
2019-01-27T12:50:21.668Z,0.00
2019-01-27T12:52:00.830Z,1.00
2019-01-27T12:53:36.262Z,0.00
2019-01-27T12:55:14.334Z,1.00
2019-01-27T12:56:56.367Z,0.00
2019-01-27T12:58:34.942Z,0.00
2019-01-27T13:00:27.422Z,1.40
2019-01-27T13:02:06.018Z,1.00
2019-01-27T13:03:42.238Z,0.20
2019-01-27T13:05:25.561Z,0.80
2019-01-27T13:07:04.158Z,0.40
2019-01-27T13:08:45.939Z,0.60
2019-01-27T13:10:34.428Z,0.20
2019-01-27T13:12:15.958Z,1.00
2019-01-27T13:13:55.755Z,1.00
2019-01-27T13:15:40.654Z,1.00
2019-01-27T13:17:31.251Z,0.00
2019-01-27T13:19:14.354Z,1.00
2019-01-27T13:20:59.413Z,0.00
2019-01-27T13:22:35.578Z,1.00
2019-01-27T13:24:26.691Z,0.00
2019-01-27T13:26:03.887Z,2.20
2019-01-27T13:27:40.623Z,0.00
2019-01-27T13:29:18.348Z,0.80
2019-01-27T13:30:58.661Z,0.00
2019-01-27T13:32:34.926Z,1.40
2019-01-27T13:34:13.779Z,0.00
2019-01-27T13:35:49.824Z,1.00
2019-01-27T13:37:27.868Z,1.00
2019-01-27T13:39:08.272Z,0.60
2019-01-27T13:40:50.461Z,0.40
2019-01-27T13:42:29.549Z,-0.20
2019-01-27T13:44:08.556Z,0.00
2019-01-27T13:45:50.770Z,0.00
2019-01-27T13:47:31.386Z,0.20
2019-01-27T13:49:13.782Z,0.00
2019-01-27T13:50:59.841Z,0.80
2019-01-27T13:52:38.181Z,0.00
2019-01-27T13:54:16.534Z,0.60
2019-01-27T13:55:58.482Z,0.80
2019-01-27T13:57:36.095Z,0.00
2019-01-27T13:59:18.899Z,0.00
2019-01-27T14:01:00.688Z,0.00
2019-01-27T14:02:40.975Z,0.00
2019-01-27T14:04:19.450Z,0.20
2019-01-27T14:06:15.380Z,1.00
2019-01-27T14:07:58.207Z,1.00
2019-01-27T14:09:48.665Z,1.00
2019-01-27T14:11:24.734Z,0.40
2019-01-27T14:13:09.438Z,1.00
2019-01-27T14:14:52.201Z,1.00
2019-01-27T14:16:29.097Z,0.20
2019-01-27T14:18:06.847Z,0.20
2019-01-27T14:19:45.602Z,1.80
2019-01-27T14:21:23.387Z,1.00
2019-01-27T14:23:03.720Z,1.80
2019-01-27T14:24:43.928Z,0.00
2019-01-27T14:26:19.580Z,0.20
2019-01-27T14:28:02.192Z,0.00
2019-01-27T14:29:43.641Z,0.00
2019-01-27T14:31:32.389Z,0.80
2019-01-27T14:33:17.845Z,0.80
2019-01-27T14:34:53.929Z,0.00
2019-01-27T14:36:35.238Z,1.00
2019-01-27T14:38:16.974Z,0.80
2019-01-27T14:40:11.342Z,0.00
2019-01-27T14:41:49.807Z,1.00
2019-01-27T14:43:36.626Z,1.00
2019-01-27T14:45:22.811Z,0.20
2019-01-27T14:47:08.255Z,0.60
2019-01-27T14:48:48.800Z,0.60
2019-01-27T14:50:50.487Z,0.80
2019-01-27T14:52:31.860Z,1.40
2019-01-27T14:54:07.592Z,0.60
2019-01-27T14:55:43.045Z,1.40
2019-01-27T14:57:18.768Z,1.00
2019-01-27T14:58:54.562Z,2.60
2019-01-27T15:00:36.803Z,1.40
2019-01-27T15:02:12.201Z,1.00
2019-01-27T15:03:48.417Z,2.60
2019-01-27T15:05:24.019Z,1.40
2019-01-27T15:07:02.302Z,1.00
2019-01-27T15:08:38.220Z,1.00
2019-01-27T15:10:16.224Z,2.20
2019-01-27T15:11:51.693Z,1.40
2019-01-27T15:13:27.724Z,3.00
2019-01-27T15:15:18.421Z,1.00
2019-01-27T15:16:54.075Z,4.00
2019-01-27T15:18:33.824Z,2.20
2019-01-27T15:20:20.909Z,1.00
2019-01-27T15:21:56.937Z,1.40
2019-01-27T15:23:34.913Z,2.60
2019-01-27T15:25:13.234Z,1.00
2019-01-27T15:26:57.202Z,1.00
2019-01-27T15:28:43.522Z,0.00
2019-01-27T15:30:27.479Z,1.80
2019-01-27T15:32:03.196Z,0.00
2019-01-27T15:33:38.823Z,4.00
2019-01-27T15:35:16.951Z,1.00
2019-01-27T15:36:56.615Z,0.00
2019-01-27T15:38:35.080Z,0.00
2019-01-27T15:40:14.326Z,0.00
2019-01-27T15:41:50.076Z,1.00
2019-01-27T15:43:28.784Z,1.00
2019-01-27T15:45:08.453Z,0.40
2019-01-27T15:46:45.114Z,1.00
2019-01-27T15:48:20.723Z,1.00
2019-01-27T15:49:56.002Z,0.00
2019-01-27T15:51:34.649Z,0.00
2019-01-27T15:53:10.920Z,0.00
2019-01-27T15:54:47.488Z,1.00
2019-01-27T15:56:25.632Z,1.00
2019-01-27T15:58:04.783Z,0.00
2019-01-27T15:59:49.269Z,1.00
2019-01-27T16:01:29.005Z,0.80
2019-01-27T16:03:07.862Z,0.80
2019-01-27T16:04:52.887Z,1.00
2019-01-27T16:06:33.913Z,-0.20
2019-01-27T16:08:10.490Z,2.60
2019-01-27T16:09:50.209Z,0.80
2019-01-27T16:11:27.773Z,0.00
2019-01-27T16:13:03.495Z,1.00
2019-01-27T16:14:42.420Z,1.00
2019-01-27T16:16:20.327Z,0.40
2019-01-27T16:17:58.042Z,0.00
2019-01-27T16:19:33.212Z,0.00
2019-01-27T16:21:12.067Z,0.20
2019-01-27T16:23:11.472Z,0.40
2019-01-27T16:24:53.992Z,0.60
2019-01-27T16:26:41.545Z,1.00
2019-01-27T16:28:18.211Z,0.00
2019-01-27T16:30:17.259Z,0.60
2019-01-27T16:32:03.002Z,0.20
2019-01-27T16:33:57.431Z,1.40
2019-01-27T16:35:40.966Z,3.00
2019-01-27T16:37:20.833Z,0.00
2019-01-27T16:39:01.806Z,4.80
2019-01-27T16:40:39.729Z,3.60
2019-01-27T16:42:14.538Z,3.40
2019-01-27T16:43:51.927Z,1.00
2019-01-27T16:45:27.914Z,3.80
2019-01-27T16:47:10.499Z,1.00
2019-01-27T16:48:51.234Z,5.20
2019-01-27T16:50:36.431Z,0.00
2019-01-27T16:52:12.643Z,3.20
2019-01-27T16:53:51.315Z,3.20
2019-01-27T16:55:30.182Z,1.00
2019-01-27T16:57:10.180Z,0.00
2019-01-27T16:58:46.339Z,3.40
2019-01-27T17:00:24.380Z,1.00
2019-01-27T17:02:07.483Z,3.00
2019-01-27T17:03:47.359Z,1.40
2019-01-27T17:05:25.519Z,0.00
2019-01-27T17:07:01.566Z,1.00
2019-01-27T17:08:42.609Z,0.00
2019-01-27T17:10:20.281Z,2.20
2019-01-27T17:12:02.345Z,2.20
2019-01-27T17:13:41.095Z,1.40
2019-01-27T17:15:24.403Z,0.00
2019-01-27T17:17:03.232Z,0.40
2019-01-27T17:18:40.296Z,0.00
2019-01-27T17:20:29.483Z,0.20
2019-01-27T17:22:09.152Z,2.20
2019-01-27T17:23:55.722Z,3.40
2019-01-27T17:25:34.007Z,3.20
2019-01-27T17:27:10.784Z,3.00
2019-01-27T17:29:10.766Z,1.60
2019-01-27T17:30:48.447Z,0.00
2019-01-27T17:32:27.752Z,1.00
2019-01-27T17:34:08.257Z,0.20
2019-01-27T17:35:44.842Z,0.00
2019-01-27T17:37:21.709Z,0.60
2019-01-27T17:38:58.780Z,1.00
2019-01-27T17:40:37.911Z,0.00
2019-01-27T17:42:19.590Z,1.00
2019-01-27T17:43:54.948Z,2.20
2019-01-27T17:45:32.775Z,3.00
2019-01-27T17:47:08.440Z,3.00
2019-01-27T17:48:51.861Z,2.20
2019-01-27T17:50:27.528Z,1.00
2019-01-27T17:52:05.277Z,1.00
2019-01-27T17:53:57.115Z,3.40
2019-01-27T17:55:48.295Z,3.80
2019-01-27T17:57:57.485Z,3.00
2019-01-27T17:59:54.052Z,9.60
2019-01-27T18:01:51.300Z,1.00
2019-01-27T18:03:41.285Z,3.00
2019-01-27T18:05:34.398Z,3.80
2019-01-27T18:07:43.390Z,0.00
2019-01-27T18:09:34.539Z,3.00
2019-01-27T18:11:32.049Z,3.00
2019-01-27T18:13:33.213Z,11.80
2019-01-27T18:15:25.087Z,6.00
2019-01-27T18:17:09.177Z,0.80
2019-01-27T18:18:49.350Z,4.80
2019-01-27T18:20:45.198Z,4.40
2019-01-27T18:22:28.461Z,4.80
2019-01-27T18:24:07.263Z,6.00
2019-01-27T18:25:50.906Z,6.40
2019-01-27T18:27:28.452Z,3.80
2019-01-27T18:29:13.967Z,7.40
2019-01-27T18:31:20.965Z,6.60
2019-01-27T18:33:05.942Z,12.60
2019-01-27T18:35:05.657Z,6.60
2019-01-27T18:36:51.585Z,3.80
2019-01-27T18:38:32.079Z,5.80
2019-01-27T18:40:14.236Z,5.80
2019-01-27T18:41:59.167Z,3.00
2019-01-27T18:43:34.589Z,4.00
2019-01-27T18:45:18.974Z,4.80
2019-01-27T18:47:05.778Z,4.80
2019-01-27T18:48:51.300Z,6.00
2019-01-27T18:50:29.479Z,4.00
2019-01-27T18:52:06.580Z,5.60
2019-01-27T18:54:21.515Z,4.00
2019-01-27T18:55:58.295Z,4.80
2019-01-27T18:57:54.258Z,1.80
2019-01-27T19:00:07.761Z,3.20
2019-01-27T19:02:02.032Z,4.40
2019-01-27T19:03:43.334Z,3.40
2019-01-27T19:05:42.024Z,4.00
2019-01-27T19:07:46.425Z,1.00
2019-01-27T19:09:36.019Z,3.00
2019-01-27T19:11:36.494Z,6.00
2019-01-27T19:13:33.044Z,3.40
2019-01-27T19:15:45.048Z,1.00
2019-01-27T19:17:37.313Z,4.40
2019-01-27T19:19:29.561Z,3.00
2019-01-27T19:21:23.940Z,3.00
2019-01-27T19:23:06.433Z,3.60
2019-01-27T19:25:09.319Z,6.20
2019-01-27T19:27:05.547Z,4.00
2019-01-27T19:29:12.229Z,1.00
2019-01-27T19:31:13.174Z,6.00
2019-01-27T19:33:16.507Z,4.40
2019-01-27T19:35:03.908Z,1.00
2019-01-27T19:37:01.070Z,0.80
2019-01-27T19:38:58.216Z,3.80
2019-01-27T19:40:55.316Z,2.20
2019-01-27T19:42:39.731Z,3.60
2019-01-27T19:44:43.400Z,3.20
2019-01-27T19:46:41.648Z,0.20
2019-01-27T19:48:36.698Z,3.00
2019-01-27T19:50:40.696Z,3.60
2019-01-27T19:52:37.015Z,2.60
2019-01-27T19:54:29.624Z,3.00
2019-01-27T19:56:23.724Z,6.20
2019-01-27T19:58:24.784Z,1.00
2019-01-27T20:00:36.830Z,2.20
2019-01-27T20:03:05.394Z,4.00
2019-01-27T20:07:31.097Z,1.00
2019-01-27T20:09:28.165Z,10.40
2019-01-27T20:11:13.083Z,7.40
2019-01-27T20:13:27.504Z,15.20
2019-01-27T20:15:18.907Z,3.00
2019-01-27T20:17:16.136Z,3.00
2019-01-27T20:19:07.382Z,3.80
2019-01-27T20:21:34.970Z,1.80
2019-01-27T20:23:34.306Z,2.60
2019-01-27T20:25:28.252Z,3.00
2019-01-27T20:27:21.280Z,2.20
2019-01-27T20:29:24.082Z,3.00
2019-01-27T20:31:33.907Z,0.40
2019-01-27T20:33:50.809Z,4.40
2019-01-27T20:35:50.411Z,6.60
2019-01-27T20:37:47.139Z,3.40
2019-01-27T20:39:44.397Z,3.00
2019-01-27T20:41:43.359Z,10.60
2019-01-27T20:43:49.485Z,8.20
2019-01-27T20:45:46.203Z,7.40
2019-01-27T20:47:32.692Z,6.00
2019-01-27T20:49:17.284Z,6.80
2019-01-27T20:51:17.356Z,7.00
2019-01-27T20:53:30.434Z,9.40
2019-01-27T20:55:30.777Z,9.20
2019-01-27T20:57:20.585Z,3.80
2019-01-27T20:59:32.252Z,6.00
2019-01-27T21:01:27.789Z,6.40
2019-01-27T21:03:32.783Z,7.40
2019-01-27T21:05:26.274Z,9.60
2019-01-27T21:07:20.843Z,4.00
2019-01-27T21:09:17.199Z,4.00
2019-01-27T21:11:32.659Z,4.40
2019-01-27T21:13:33.573Z,2.20
2019-01-27T21:15:35.194Z,8.40
2019-01-27T21:17:30.057Z,12.40
2019-01-27T21:19:16.064Z,26.20
2019-01-27T21:20:55.218Z,12.00
2019-01-27T21:22:34.462Z,12.00
2019-01-27T21:24:11.221Z,3.20
2019-01-27T21:25:47.324Z,10.00
2019-01-27T21:27:23.523Z,8.60
2019-01-27T21:29:04.707Z,11.20
2019-01-27T21:30:40.754Z,13.80
2019-01-27T21:32:17.421Z,6.00
2019-01-27T21:33:53.987Z,8.40
2019-01-27T21:35:36.689Z,2.60
2019-01-27T21:37:18.225Z,11.20
2019-01-27T21:38:55.548Z,15.40
2019-01-27T21:40:52.914Z,8.40
2019-01-27T21:42:28.676Z,3.40
2019-01-27T21:44:14.095Z,9.20
2019-01-27T21:45:59.110Z,7.00
2019-01-27T21:47:37.361Z,10.60
2019-01-27T21:49:20.417Z,9.40
2019-01-27T21:50:56.602Z,14.40
2019-01-27T21:52:32.278Z,9.00
2019-01-27T21:54:14.137Z,10.00
2019-01-27T21:55:49.699Z,8.60
2019-01-27T21:57:28.823Z,10.80
2019-01-27T21:59:29.676Z,7.60
2019-01-27T22:01:25.374Z,9.40
2019-01-27T22:02:57.798Z,7.40
2019-01-27T22:04:38.353Z,18.00
2019-01-27T22:06:37.563Z,8.80
2019-01-27T22:08:18.167Z,6.80
2019-01-27T22:09:58.348Z,12.80
2019-01-27T22:11:39.116Z,7.80
2019-01-27T22:13:18.037Z,11.80
2019-01-27T22:14:57.698Z,4.00
2019-01-27T22:16:38.425Z,11.60
2019-01-27T22:18:15.327Z,9.40
2019-01-27T22:20:04.471Z,9.60
2019-01-27T22:21:40.660Z,8.60
2019-01-27T22:23:17.708Z,3.60
2019-01-27T22:25:11.524Z,9.00
2019-01-27T22:26:53.349Z,9.00
2019-01-27T22:28:33.041Z,11.20
2019-01-27T22:30:18.987Z,7.00
2019-01-27T22:31:57.525Z,8.60
2019-01-27T22:33:34.582Z,7.60
2019-01-27T22:35:15.914Z,10.20
2019-01-27T22:37:00.781Z,9.00
2019-01-27T22:38:36.894Z,7.00
2019-01-27T22:40:20.588Z,7.00
2019-01-27T22:42:02.196Z,5.80
2019-01-27T22:43:41.317Z,8.60
2019-01-27T22:45:22.441Z,7.40
2019-01-27T22:47:00.013Z,5.40
2019-01-27T22:48:43.164Z,9.40
2019-01-27T22:50:20.028Z,7.60
2019-01-27T22:52:04.741Z,6.80
2019-01-27T22:53:41.863Z,6.40
2019-01-27T22:55:17.650Z,8.40
2019-01-27T22:56:58.952Z,7.00
2019-01-27T22:58:40.219Z,6.40
2019-01-27T23:00:45.928Z,6.60
2019-01-27T23:02:21.435Z,5.60
2019-01-27T23:04:03.434Z,4.20
2019-01-27T23:05:43.972Z,3.80
2019-01-27T23:07:22.098Z,4.00
2019-01-27T23:08:56.794Z,4.80
2019-01-27T23:10:32.795Z,6.40
2019-01-27T23:12:08.448Z,7.00
2019-01-27T23:13:43.765Z,9.00
2019-01-27T23:15:21.356Z,4.00